Connexion S'enregistrer

Connexion à votre compte

Identifiant
Mot de passe
Maintenir la connexion active sur ce site

Créer un compte

Pour valider ce formulaire, vous devez remplir tous les champs.
Nom
Identifiant
Mot de passe
Répétez le mot de passe
Adresse e-mail
Répétez l'adresse e-mail

Nous contacter

 Téléphone : +33 (0)4 79 54 41 81

Coordonnées détaillées et accès : cliquez ici

 
LFLB °C
    Ferienhaus Ostsee
[source: ADDS]
METAR
LFLB 211300Z AUTO 36006KT 310V030 9999 3800 NSC 21/10 Q1014 TEMPO FEW040TCU =
TAF LFLB 211100Z 2112/2212 36010KT CAVOK TEMPO 2112/2118 FEW040TCU PROB40 TEMPO 2200/2209 BKN020
TAF
TAF LFLB 211100Z 2112/2212 36010KT CAVOK TEMPO 2112/2118 FEW040TCU PROB40 TEMPO 2200/2209 BKN020 =
SR / SS: 03:59 / 19:06 UTC (Lever/Coucher du soleil le 2019-05-21)
JSN Boot template designed by JoomlaShine.com